Time;durP1;ratioP1;P1;durP2;ratioP2;P2;SDS_P1;SDS_P2;PMS_P1;PMS_P2;Temp;Humidity;BMP_temperature;BMP_pressure;BME280_temperature;BME280_humidity;BME280_pressure;Samples;Min_cycle;Max_cycle;Signal;HPM_P1;HPM_P2
2022/10/16 00:00:36;;;;;;;;;;;;;;;6.35;100.00;95615.06;5012209;28;19929;-64
2022/10/16 00:03:03;;;;;;;;;;;;;;;6.10;100.00;95617.19;5007507;28;19937;-64
2022/10/16 00:05:30;;;;;;;;;;;;;;;6.13;100.00;95611.66;5017124;28;19936;-64
2022/10/16 00:07:57;;;;;;;;;;;;;;;6.20;100.00;95622.88;5011243;28;20025;-64
2022/10/16 00:10:24;;;;;;;;;;;;;;;6.20;100.00;95617.69;5009614;28;19929;-64
2022/10/16 00:12:51;;;;;;;;;;;;;;;6.05;100.00;95619.50;5011359;28;19936;-64
2022/10/16 00:15:17;;;;;;;;;;;;;;;6.02;100.00;95617.31;5012650;28;19983;-64
2022/10/16 00:17:44;;;;;;;;;;;;;;;6.08;100.00;95629.50;5013111;28;20397;-64
2022/10/16 00:20:11;;;;;;;;;;;;;;;6.03;100.00;95632.66;5009368;28;20700;-64
2022/10/16 00:22:37;;;;;;;;;;;;;;;6.14;100.00;95631.38;5015092;28;20024;-64
2022/10/16 00:25:04;;;;;;;;;;;;;;;5.87;100.00;95633.63;5011155;28;19936;-64
2022/10/16 00:27:31;;;;;;;;;;;;;;;5.78;100.00;95633.91;5009223;28;19940;-64
2022/10/16 00:29:57;;;;;;;;;;;;;;;5.44;100.00;95575.84;5013311;28;19932;-64
2022/10/16 00:32:29;;;;;;;;;;;;;;;5.86;100.00;95637.19;5010706;28;20444;-64
2022/10/16 00:34:56;;;;;;;;;;;;;;;5.67;100.00;95637.75;5015097;28;20028;-64
2022/10/16 00:37:22;;;;;;;;;;;;;;;5.68;100.00;95644.53;4995627;28;19928;-65
2022/10/16 00:39:49;;;;;;;;;;;;;;;5.63;100.00;95641.69;5013044;28;20003;-64
2022/10/16 00:42:17;;;;;;;;;;;;;;;5.59;100.00;95635.28;5014760;28;20413;-63
2022/10/16 00:44:47;;;;;;;;;;;;;;;5.59;100.00;95645.63;5009943;28;19922;-65
2022/10/16 00:47:22;;;;;;;;;;;;;;;5.68;100.00;95639.38;5010189;28;19980;-65
2022/10/16 00:49:50;;;;;;;;;;;;;;;5.84;100.00;95631.41;5015676;28;20554;-65
2022/10/16 00:52:17;;;;;;;;;;;;;;;5.63;100.00;95634.72;5006395;28;21194;-65
2022/10/16 00:54:45;;;;;;;;;;;;;;;5.41;100.00;95633.84;4997047;28;19929;-65
2022/10/16 00:57:12;;;;;;;;;;;;;;;5.45;100.00;95640.25;5007546;28;20028;-65
2022/10/16 00:59:41;;;;;;;;;;;;;;;5.52;100.00;95641.16;4996330;28;20017;-64
2022/10/16 01:02:09;;;;;;;;;;;;;;;5.43;100.00;95631.88;5012390;28;19987;-64
2022/10/16 01:04:44;;;;;;;;;;;;;;;5.58;100.00;95644.78;5010818;28;20394;-65
2022/10/16 01:07:14;;;;;;;;;;;;;;;5.82;100.00;95645.50;5009553;28;19952;-64
2022/10/16 01:09:49;;;;;;;;;;;;;;;5.89;100.00;95647.19;5011999;28;19976;-65
2022/10/16 01:12:22;;;;;;;;;;;;;;;6.01;100.00;95654.50;5009367;28;19996;-65
2022/10/16 01:15:00;;;;;;;;;;;;;;;5.88;100.00;95655.91;5014416;28;19929;-65
2022/10/16 01:17:34;;;;;;;;;;;;;;;5.74;100.00;95656.72;5010090;28;20595;-65
2022/10/16 01:20:10;;;;;;;;;;;;;;;5.67;100.00;95661.00;5011216;28;19960;-65
2022/10/16 01:22:43;;;;;;;;;;;;;;;5.52;100.00;95656.66;5009650;28;20359;-65
2022/10/16 01:25:12;;;;;;;;;;;;;;;5.29;100.00;95650.78;5006275;28;19929;-66
2022/10/16 01:27:40;;;;;;;;;;;;;;;5.32;100.00;95640.88;5011386;28;19932;-65
2022/10/16 01:30:09;;;;;;;;;;;;;;;5.34;100.00;95641.50;5008930;28;20030;-64
2022/10/16 01:32:42;;;;;;;;;;;;;;;5.26;100.00;95636.44;5005199;28;20006;-65
2022/10/16 01:35:23;;;;;;;;;;;;;;;5.21;100.00;95637.97;5003806;28;20029;-65
2022/10/16 01:38:01;;;;;;;;;;;;;;;5.23;100.00;95638.56;5015331;28;19933;-65
2022/10/16 01:40:29;;;;;;;;;;;;;;;4.90;100.00;95646.66;5001762;28;20051;-65
2022/10/16 01:42:59;;;;;;;;;;;;;;;4.60;100.00;95636.22;5011021;28;19995;-67
2022/10/16 01:45:28;;;;;;;;;;;;;;;4.48;100.00;95647.94;5008625;28;20006;-66
2022/10/16 01:47:55;;;;;;;;;;;;;;;4.38;100.00;95654.13;5005052;28;19984;-65
2022/10/16 01:50:24;;;;;;;;;;;;;;;4.53;100.00;95651.59;5003661;28;19933;-65
2022/10/16 01:52:52;;;;;;;;;;;;;;;4.83;100.00;95650.91;5004352;28;19956;-65
2022/10/16 01:55:23;;;;;;;;;;;;;;;4.89;100.00;95655.34;5008214;28;19957;-65
2022/10/16 01:57:51;;;;;;;;;;;;;;;4.72;100.00;95660.66;5010742;28;19929;-65
2022/10/16 02:00:20;;;;;;;;;;;;;;;4.50;100.00;95656.28;5006842;28;19965;-65
2022/10/16 02:02:49;;;;;;;;;;;;;;;4.32;100.00;95654.81;5010888;28;19925;-65
2022/10/16 02:05:20;;;;;;;;;;;;;;;4.23;100.00;95655.81;5004912;28;19956;-65
2022/10/16 02:07:47;;;;;;;;;;;;;;;4.25;100.00;95659.06;5010471;28;20369;-65
2022/10/16 02:10:13;;;;;;;;;;;;;;;4.36;100.00;95661.22;5006480;28;19972;-65
2022/10/16 02:12:42;;;;;;;;;;;;;;;4.17;100.00;95666.84;5008588;28;20642;-65
2022/10/16 02:15:09;;;;;;;;;;;;;;;4.28;100.00;95669.00;5012471;28;19926;-65
2022/10/16 02:17:35;;;;;;;;;;;;;;;4.24;100.00;95669.53;5007815;28;20345;-65
2022/10/16 02:20:04;;;;;;;;;;;;;;;4.11;100.00;95677.84;5010635;28;21254;-65
2022/10/16 02:22:42;;;;;;;;;;;;;;;4.16;100.00;95665.22;5007944;28;20692;-65
2022/10/16 02:25:15;;;;;;;;;;;;;;;4.14;100.00;95682.63;5012370;28;19943;-65
2022/10/16 02:27:49;;;;;;;;;;;;;;;4.22;100.00;95677.44;5009131;28;20847;-67
2022/10/16 02:30:32;;;;;;;;;;;;;;;4.13;100.00;95675.88;5013430;28;19929;-66
2022/10/16 02:33:01;;;;;;;;;;;;;;;4.07;100.00;95681.69;5007666;28;20104;-67
2022/10/16 02:35:30;;;;;;;;;;;;;;;4.07;100.00;95684.28;4993525;28;19925;-66
2022/10/16 02:37:58;;;;;;;;;;;;;;;4.08;100.00;95676.38;5005111;28;19930;-67
2022/10/16 02:40:25;;;;;;;;;;;;;;;3.98;100.00;95684.34;5013181;28;19933;-65
2022/10/16 02:42:52;;;;;;;;;;;;;;;3.91;100.00;95683.41;4990876;28;20388;-65
2022/10/16 02:45:21;;;;;;;;;;;;;;;3.91;100.00;95688.56;5012785;28;19987;-65
2022/10/16 02:47:47;;;;;;;;;;;;;;;4.24;100.00;95682.44;5010013;28;19934;-65
2022/10/16 02:50:14;;;;;;;;;;;;;;;4.43;100.00;95678.59;5010450;28;19951;-65
2022/10/16 02:52:41;;;;;;;;;;;;;;;4.21;100.00;95678.41;5013230;28;20533;-65
2022/10/16 02:55:07;;;;;;;;;;;;;;;4.26;100.00;95691.59;5009645;28;20007;-65
2022/10/16 02:57:36;;;;;;;;;;;;;;;4.01;100.00;95690.91;5019566;28;19929;-65
2022/10/16 03:00:07;;;;;;;;;;;;;;;3.91;100.00;95693.72;5010879;28;19936;-65
2022/10/16 03:02:33;;;;;;;;;;;;;;;4.00;100.00;95687.53;5011157;28;20067;-65
2022/10/16 03:05:00;;;;;;;;;;;;;;;3.89;100.00;95685.34;5013774;28;19940;-65
2022/10/16 03:07:27;;;;;;;;;;;;;;;3.96;100.00;95685.47;5013196;28;19932;-64
2022/10/16 03:09:55;;;;;;;;;;;;;;;3.93;100.00;95686.63;5015191;28;19933;-66
2022/10/16 03:12:22;;;;;;;;;;;;;;;3.93;100.00;95689.19;5017237;28;19983;-66
2022/10/16 03:14:48;;;;;;;;;;;;;;;3.95;100.00;95694.97;4997927;28;19979;-65
2022/10/16 03:17:16;;;;;;;;;;;;;;;4.06;100.00;95695.59;5015796;28;19956;-66
2022/10/16 03:19:43;;;;;;;;;;;;;;;4.10;100.00;95696.84;5017726;28;19929;-67
2022/10/16 03:22:10;;;;;;;;;;;;;;;4.34;100.00;95699.28;5016206;28;19960;-65
2022/10/16 03:24:36;;;;;;;;;;;;;;;4.46;100.00;95701.47;5014699;28;21356;-65
2022/10/16 03:27:03;;;;;;;;;;;;;;;4.31;100.00;95694.47;5014432;28;19932;-66
2022/10/16 03:29:29;;;;;;;;;;;;;;;4.33;100.00;95697.69;5014310;28;19937;-65
2022/10/16 03:31:56;;;;;;;;;;;;;;;4.23;100.00;95707.41;5013100;28;19931;-67
2022/10/16 03:34:23;;;;;;;;;;;;;;;4.30;100.00;95700.59;5013823;28;19976;-65
2022/10/16 03:36:50;;;;;;;;;;;;;;;4.54;100.00;95709.19;5012466;28;19929;-67
2022/10/16 03:39:17;;;;;;;;;;;;;;;4.45;100.00;95699.84;5001366;28;19929;-67
2022/10/16 03:41:43;;;;;;;;;;;;;;;4.40;100.00;95698.59;5009215;28;19932;-67
2022/10/16 03:44:10;;;;;;;;;;;;;;;4.02;100.00;95708.78;5018097;28;19933;-67
2022/10/16 03:46:37;;;;;;;;;;;;;;;3.68;100.00;95708.28;5015024;28;19937;-65
2022/10/16 03:49:03;;;;;;;;;;;;;;;3.67;100.00;95701.53;4993128;28;19929;-64
2022/10/16 03:51:35;;;;;;;;;;;;;;;3.48;100.00;95698.38;5014062;28;19929;-65
2022/10/16 03:54:01;;;;;;;;;;;;;;;3.41;100.00;95702.56;5012741;28;20399;-64
2022/10/16 03:56:28;;;;;;;;;;;;;;;3.38;100.00;95702.88;5017824;28;20023;-64
2022/10/16 03:58:54;;;;;;;;;;;;;;;3.67;100.00;95704.91;5014593;28;20551;-64
2022/10/16 04:01:21;;;;;;;;;;;;;;;3.48;100.00;95713.81;5009939;28;20306;-64
2022/10/16 04:03:48;;;;;;;;;;;;;;;3.47;100.00;95706.25;4995800;28;20018;-63
2022/10/16 04:06:14;;;;;;;;;;;;;;;3.53;100.00;95706.41;5015756;28;19929;-63
2022/10/16 04:08:44;;;;;;;;;;;;;;;3.32;100.00;95698.41;5008238;28;20575;-63
2022/10/16 04:11:11;;;;;;;;;;;;;;;3.20;100.00;95701.31;5013828;28;20083;-63
2022/10/16 04:13:37;;;;;;;;;;;;;;;3.08;100.00;95707.78;5012393;28;19929;-64
2022/10/16 04:16:04;;;;;;;;;;;;;;;3.12;100.00;95703.91;5019292;28;20019;-64
2022/10/16 04:18:31;;;;;;;;;;;;;;;3.01;100.00;95701.66;5009623;28;19929;-63
2022/10/16 04:21:02;;;;;;;;;;;;;;;2.85;100.00;95713.56;5010153;28;19925;-62
2022/10/16 04:23:28;;;;;;;;;;;;;;;2.93;100.00;95709.38;5017950;28;19988;-62
2022/10/16 04:25:55;;;;;;;;;;;;;;;2.92;100.00;95707.75;5008466;28;20088;-64
2022/10/16 04:28:22;;;;;;;;;;;;;;;2.96;100.00;95711.66;5014623;28;20334;-63
2022/10/16 04:30:48;;;;;;;;;;;;;;;2.82;100.00;95707.94;5009178;28;19925;-64
2022/10/16 04:33:15;;;;;;;;;;;;;;;2.99;100.00;95698.44;5015952;28;20445;-63
2022/10/16 04:35:41;;;;;;;;;;;;;;;3.31;100.00;95707.09;5008071;28;19932;-63
2022/10/16 04:38:08;;;;;;;;;;;;;;;3.28;100.00;95715.13;5010316;28;20482;-63
2022/10/16 04:40:36;;;;;;;;;;;;;;;3.00;100.00;95720.63;5010403;28;19933;-63
2022/10/16 04:43:03;;;;;;;;;;;;;;;3.11;100.00;95722.88;5019738;28;19972;-64
2022/10/16 04:45:30;;;;;;;;;;;;;;;3.38;100.00;95729.44;5009975;28;19987;-63
2022/10/16 04:47:57;;;;;;;;;;;;;;;3.18;100.00;95731.56;5010196;28;19936;-66
2022/10/16 04:50:25;;;;;;;;;;;;;;;3.10;100.00;95723.03;5008298;28;20302;-64
2022/10/16 04:53:04;;;;;;;;;;;;;;;3.35;100.00;95741.84;5005026;28;19929;-64
2022/10/16 04:55:31;;;;;;;;;;;;;;;3.19;100.00;95740.09;5011808;28;19983;-63
2022/10/16 04:57:57;;;;;;;;;;;;;;;3.17;100.00;95737.69;5008016;28;19972;-64
2022/10/16 05:00:24;;;;;;;;;;;;;;;3.37;100.00;95735.56;5006095;28;19926;-63
2022/10/16 05:02:51;;;;;;;;;;;;;;;3.51;100.00;95749.56;5008974;28;20477;-64
2022/10/16 05:05:19;;;;;;;;;;;;;;;3.69;100.00;95751.09;5008373;28;19925;-63
2022/10/16 05:07:47;;;;;;;;;;;;;;;3.64;100.00;95744.69;5008121;28;19929;-63
2022/10/16 05:10:13;;;;;;;;;;;;;;;3.60;100.00;95743.41;5012040;28;20024;-63
2022/10/16 05:12:40;;;;;;;;;;;;;;;3.58;100.00;95750.50;5008227;28;19979;-64
2022/10/16 05:15:07;;;;;;;;;;;;;;;3.88;100.00;95748.16;5007850;28;19936;-62
2022/10/16 05:17:33;;;;;;;;;;;;;;;4.00;100.00;95759.72;5010069;28;19937;-64
2022/10/16 05:20:00;;;;;;;;;;;;;;;4.12;100.00;95761.94;5011680;28;20068;-62
2022/10/16 05:22:26;;;;;;;;;;;;;;;3.92;100.00;95767.47;5009930;28;19983;-63
2022/10/16 05:24:54;;;;;;;;;;;;;;;4.08;100.00;95768.41;5009265;28;19933;-64
2022/10/16 05:27:21;;;;;;;;;;;;;;;4.22;100.00;95778.81;5012768;28;20009;-64
2022/10/16 05:29:48;;;;;;;;;;;;;;;4.44;100.00;95770.50;5006660;28;19930;-64
2022/10/16 05:32:17;;;;;;;;;;;;;;;4.78;100.00;95768.34;5002944;28;20020;-62
2022/10/16 05:34:44;;;;;;;;;;;;;;;4.89;100.00;95772.31;5000435;28;19960;-64
2022/10/16 05:37:11;;;;;;;;;;;;;;;4.90;100.00;95776.50;5010706;28;19936;-63
2022/10/16 05:39:38;;;;;;;;;;;;;;;4.87;100.00;95781.22;5011356;28;19987;-64
2022/10/16 05:42:05;;;;;;;;;;;;;;;4.82;100.00;95775.75;5014547;28;19983;-64
2022/10/16 05:44:31;;;;;;;;;;;;;;;4.91;100.00;95777.31;5010169;28;19935;-63
2022/10/16 05:46:59;;;;;;;;;;;;;;;4.91;100.00;95777.31;5009454;28;19925;-64
2022/10/16 05:49:26;;;;;;;;;;;;;;;4.97;100.00;95781.81;5012696;28;19968;-65
2022/10/16 05:51:52;;;;;;;;;;;;;;;5.04;100.00;95787.88;5015282;28;19933;-64
2022/10/16 05:54:19;;;;;;;;;;;;;;;5.30;100.00;95786.72;5010536;28;20433;-64
2022/10/16 05:56:46;;;;;;;;;;;;;;;5.24;100.00;95787.38;5009596;28;19929;-65
2022/10/16 05:59:12;;;;;;;;;;;;;;;5.42;100.00;95793.06;5011813;28;19936;-64
2022/10/16 06:01:40;;;;;;;;;;;;;;;5.53;100.00;95792.63;5006153;28;19933;-64
2022/10/16 06:04:08;;;;;;;;;;;;;;;5.49;100.00;95791.38;5016639;28;20047;-63
2022/10/16 06:06:36;;;;;;;;;;;;;;;5.66;100.00;95793.81;4989050;28;19940;-63
2022/10/16 06:09:03;;;;;;;;;;;;;;;5.68;100.00;95794.44;5010926;28;20048;-63
2022/10/16 06:11:30;;;;;;;;;;;;;;;5.86;100.00;95797.50;5007849;28;19936;-64
2022/10/16 06:13:59;;;;;;;;;;;;;;;6.17;100.00;95799.13;5009560;28;20648;-63
2022/10/16 06:16:27;;;;;;;;;;;;;;;6.41;100.00;95805.00;5010382;28;20012;-63
2022/10/16 06:18:55;;;;;;;;;;;;;;;6.54;100.00;95810.34;5008632;28;19933;-63
2022/10/16 06:21:26;;;;;;;;;;;;;;;6.65;100.00;95811.66;5009402;28;19960;-64
2022/10/16 06:23:54;;;;;;;;;;;;;;;6.98;100.00;95822.38;5008437;28;19929;-63
2022/10/16 06:26:22;;;;;;;;;;;;;;;7.13;100.00;95821.50;5010399;28;19937;-63
2022/10/16 06:28:49;;;;;;;;;;;;;;;7.32;100.00;95828.66;5007893;28;19929;-64
2022/10/16 06:31:16;;;;;;;;;;;;;;;7.38;100.00;95827.13;5007730;28;19937;-67
2022/10/16 06:33:43;;;;;;;;;;;;;;;7.45;100.00;95834.00;5005590;28;19941;-64
2022/10/16 06:36:11;;;;;;;;;;;;;;;7.64;100.00;95831.75;5008199;28;20303;-65
2022/10/16 06:38:38;;;;;;;;;;;;;;;7.87;100.00;95836.69;5006867;28;19987;-64
2022/10/16 06:41:05;;;;;;;;;;;;;;;8.05;100.00;95838.81;5012616;28;19929;-63
2022/10/16 06:43:34;;;;;;;;;;;;;;;8.33;100.00;95848.34;5006587;28;19925;-64
2022/10/16 06:46:02;;;;;;;;;;;;;;;8.36;100.00;95850.56;5009255;28;19935;-64
2022/10/16 06:48:30;;;;;;;;;;;;;;;8.30;100.00;95846.13;4989239;28;20100;-63
2022/10/16 06:50:58;;;;;;;;;;;;;;;8.47;100.00;95847.47;5010625;28;19929;-64
2022/10/16 06:53:25;;;;;;;;;;;;;;;8.88;100.00;95854.44;5008699;28;20043;-64
2022/10/16 06:55:51;;;;;;;;;;;;;;;9.06;100.00;95858.28;5011306;28;19969;-64
2022/10/16 06:58:18;;;;;;;;;;;;;;;9.28;100.00;95864.94;5012379;28;20362;-63
2022/10/16 07:00:45;;;;;;;;;;;;;;;9.38;100.00;95860.16;5007667;28;19964;-68
2022/10/16 07:03:11;;;;;;;;;;;;;;;9.60;100.00;95861.75;5009898;28;21437;-66
2022/10/16 07:05:39;;;;;;;;;;;;;;;9.55;100.00;95857.16;5004373;28;19991;-65
2022/10/16 07:08:06;;;;;;;;;;;;;;;9.68;100.00;95859.78;5011629;28;19949;-65
2022/10/16 07:10:33;;;;;;;;;;;;;;;10.03;100.00;95862.19;5002605;28;19941;-66
2022/10/16 07:12:59;;;;;;;;;;;;;;;10.23;100.00;95861.34;5010123;28;19925;-65
2022/10/16 07:15:27;;;;;;;;;;;;;;;10.31;100.00;95863.75;5010396;28;19961;-65
2022/10/16 07:17:53;;;;;;;;;;;;;;;10.59;100.00;95870.50;5012241;28;20539;-64
2022/10/16 07:20:20;;;;;;;;;;;;;;;10.67;100.00;95878.09;5007248;28;19929;-64
2022/10/16 07:22:47;;;;;;;;;;;;;;;10.62;100.00;95870.09;5008509;28;19925;-64
2022/10/16 07:25:14;;;;;;;;;;;;;;;10.88;100.00;95870.00;5006555;28;19937;-64
2022/10/16 07:27:41;;;;;;;;;;;;;;;10.93;100.00;95871.19;5009666;28;20520;-65
2022/10/16 07:30:08;;;;;;;;;;;;;;;11.24;100.00;95868.63;4991330;28;19929;-65
2022/10/16 07:32:34;;;;;;;;;;;;;;;11.48;100.00;95869.69;5009652;28;19929;-64
2022/10/16 07:35:01;;;;;;;;;;;;;;;11.69;100.00;95869.56;5010222;28;19933;-64
2022/10/16 07:37:29;;;;;;;;;;;;;;;11.70;100.00;95876.38;5011079;28;20044;-63
2022/10/16 07:39:57;;;;;;;;;;;;;;;11.91;100.00;95873.44;5011643;28;19929;-64
2022/10/16 07:42:24;;;;;;;;;;;;;;;12.23;100.00;95868.94;4996981;28;20087;-63
2022/10/16 07:44:51;;;;;;;;;;;;;;;12.48;100.00;95872.50;5009407;28;20704;-63
2022/10/16 07:47:17;;;;;;;;;;;;;;;12.58;100.00;95878.03;5010418;28;19929;-68
2022/10/16 07:49:44;;;;;;;;;;;;;;;12.68;100.00;95878.31;5012157;28;19937;-71
2022/10/16 07:52:10;;;;;;;;;;;;;;;12.73;100.00;95883.69;5014832;28;19933;-70
2022/10/16 07:54:37;;;;;;;;;;;;;;;12.69;100.00;95874.69;4996543;28;20000;-68
2022/10/16 07:57:04;;;;;;;;;;;;;;;12.94;100.00;95881.66;5009320;28;20041;-66
2022/10/16 07:59:31;;;;;;;;;;;;;;;13.21;100.00;95882.13;5011779;28;21200;-65
2022/10/16 08:01:58;;;;;;;;;;;;;;;13.23;100.00;95884.50;5011131;28;20018;-65
2022/10/16 08:04:25;;;;;;;;;;;;;;;13.21;100.00;95882.13;5008178;28;19981;-67
2022/10/16 08:06:51;;;;;;;;;;;;;;;13.27;100.00;95880.41;5014563;28;19964;-68
2022/10/16 08:09:19;;;;;;;;;;;;;;;13.49;100.00;95886.81;5013849;28;19929;-65
2022/10/16 08:11:46;;;;;;;;;;;;;;;13.58;100.00;95893.31;5015326;28;19930;-65
2022/10/16 08:14:12;;;;;;;;;;;;;;;13.73;100.00;95889.47;5009330;28;19933;-65
2022/10/16 08:16:39;;;;;;;;;;;;;;;13.90;100.00;95894.84;5010070;28;20032;-65
2022/10/16 08:19:05;;;;;;;;;;;;;;;13.90;100.00;95900.91;4993132;28;20024;-65
2022/10/16 08:21:32;;;;;;;;;;;;;;;14.10;100.00;95884.88;5011068;28;19972;-66
2022/10/16 08:24:00;;;;;;;;;;;;;;;14.12;100.00;95889.88;5010374;28;20023;-64
2022/10/16 08:26:27;;;;;;;;;;;;;;;14.02;100.00;95882.56;5010544;28;19928;-65
2022/10/16 08:28:54;;;;;;;;;;;;;;;14.22;100.00;95882.25;5005901;28;20028;-64
2022/10/16 08:31:21;;;;;;;;;;;;;;;14.24;100.00;95874.16;5008446;28;20474;-65
2022/10/16 08:33:48;;;;;;;;;;;;;;;14.38;100.00;95879.97;5011539;28;20020;-67
2022/10/16 08:36:15;;;;;;;;;;;;;;;14.25;100.00;95876.56;5008873;28;20071;-66
2022/10/16 08:38:42;;;;;;;;;;;;;;;14.67;100.00;95873.00;5014257;28;19933;-65
2022/10/16 08:41:21;;;;;;;;;;;;;;;14.82;88.01;95880.38;5009869;28;20451;-65
2022/10/16 08:43:51;;;;;;;;;;;;;;;14.86;87.29;95881.53;5009880;28;19925;-65
2022/10/16 08:46:29;;;;;;;;;;;;;;;14.64;89.33;95874.28;5009669;28;19925;-65
2022/10/16 08:48:58;;;;;;;;;;;;;;;15.09;89.37;95881.47;5012719;28;20395;-65
2022/10/16 08:51:28;;;;;;;;;;;;;;;15.27;87.32;95882.31;5012703;28;20019;-65
2022/10/16 08:53:56;;;;;;;;;;;;;;;15.40;84.05;95891.75;5015615;28;19933;-65
2022/10/16 08:56:23;;;;;;;;;;;;;;;15.36;83.38;95894.03;5009781;28;19975;-70
2022/10/16 08:58:51;;;;;;;;;;;;;;;15.36;84.71;95888.78;4996212;28;19929;-72
2022/10/16 09:01:27;;;;;;;;;;;;;;;15.40;81.88;95892.53;5008495;28;19978;-71
2022/10/16 09:04:15;;;;;;;;;;;;;;;15.12;84.43;95884.66;5009037;28;19933;-71
2022/10/16 09:06:42;;;;;;;;;;;;;;;15.51;84.01;95895.34;4993658;28;19965;-69
2022/10/16 09:09:20;;;;;;;;;;;;;;;15.66;82.10;95890.34;5009310;28;20040;-72
2022/10/16 09:11:49;;;;;;;;;;;;;;;16.08;79.52;95887.41;5012559;28;19933;-72
2022/10/16 09:14:36;;;;;;;;;;;;;;;16.32;78.84;95884.59;5012264;28;19962;-71
2022/10/16 09:17:18;;;;;;;;;;;;;;;16.41;77.13;95885.75;5014900;28;19933;-71
2022/10/16 09:20:00;;;;;;;;;;;;;;;16.30;79.61;95886.66;5020180;28;19932;-71
2022/10/16 09:22:31;;;;;;;;;;;;;;;16.71;76.53;95889.81;5018234;28;19933;-72
2022/10/16 09:25:10;;;;;;;;;;;;;;;16.98;73.72;95890.75;5011328;28;19937;-72
2022/10/16 09:27:37;;;;;;;;;;;;;;;17.20;64.70;95887.31;5014707;28;19968;-71
2022/10/16 09:30:13;;;;;;;;;;;;;;;17.34;63.59;95893.78;5015091;28;19940;-71
2022/10/16 09:32:43;;;;;;;;;;;;;;;17.63;65.90;95880.38;5014500;28;20639;-71
2022/10/16 09:35:15;;;;;;;;;;;;;;;17.78;62.78;95883.13;5011317;28;19933;-66
2022/10/16 09:37:42;;;;;;;;;;;;;;;17.09;59.68;95890.88;5015756;28;20767;-66
2022/10/16 09:40:14;;;;;;;;;;;;;;;16.90;60.71;95883.28;5012684;28;20819;-67
2022/10/16 09:42:41;;;;;;;;;;;;;;;16.94;61.47;95878.31;5010959;28;19929;-66
2022/10/16 09:45:19;;;;;;;;;;;;;;;17.30;57.39;95883.97;5008846;28;19960;-68
2022/10/16 09:47:46;;;;;;;;;;;;;;;17.62;59.03;95878.75;5002504;28;20417;-68
2022/10/16 09:50:26;;;;;;;;;;;;;;;18.00;55.44;95879.63;5010368;28;19925;-66
2022/10/16 09:53:05;;;;;;;;;;;;;;;17.83;55.23;95873.69;5016999;28;19929;-67
2022/10/16 09:55:31;;;;;;;;;;;;;;;17.41;56.42;95829.56;5016912;28;19928;-67
2022/10/16 09:57:59;;;;;;;;;;;;;;;17.81;55.95;95870.47;5018357;28;19936;-67
2022/10/16 10:00:27;;;;;;;;;;;;;;;18.48;53.12;95869.94;5013740;28;20019;-70
2022/10/16 10:02:54;;;;;;;;;;;;;;;18.72;53.38;95869.53;5010140;28;19929;-68
2022/10/16 10:05:28;;;;;;;;;;;;;;;19.20;51.36;95870.28;5012201;28;19929;-66
2022/10/16 10:07:59;;;;;;;;;;;;;;;19.32;48.76;95874.53;5012806;28;19933;-66
2022/10/16 10:10:27;;;;;;;;;;;;;;;19.63;48.51;95862.19;5014241;28;19933;-66
2022/10/16 10:12:55;;;;;;;;;;;;;;;19.42;46.39;95858.72;5013536;28;19929;-66
2022/10/16 10:15:23;;;;;;;;;;;;;;;18.85;48.85;95855.91;5020678;28;20030;-73
2022/10/16 10:17:51;;;;;;;;;;;;;;;19.20;49.55;95859.72;5018133;28;19925;-73
2022/10/16 10:20:27;;;;;;;;;;;;;;;19.33;46.59;95857.63;5018687;28;20177;-72
2022/10/16 10:22:55;;;;;;;;;;;;;;;19.25;47.65;95857.09;5019303;28;19979;-73
2022/10/16 10:25:29;;;;;;;;;;;;;;;19.08;46.64;95856.50;4996317;28;19930;-66
2022/10/16 10:28:03;;;;;;;;;;;;;;;19.04;47.52;95855.44;5009748;28;20651;-67
2022/10/16 10:30:30;;;;;;;;;;;;;;;19.16;47.04;95855.19;5010306;28;20406;-66
2022/10/16 10:33:20;;;;;;;;;;;;;;;18.66;46.84;95860.03;5010313;28;20015;-65
2022/10/16 10:35:54;;;;;;;;;;;;;;;18.05;48.85;95850.69;5012038;28;19932;-71
2022/10/16 10:38:21;;;;;;;;;;;;;;;17.69;49.95;95846.97;5014970;28;19933;-68
2022/10/16 10:40:53;;;;;;;;;;;;;;;17.69;50.27;95841.69;5010331;28;19948;-72
2022/10/16 10:43:23;;;;;;;;;;;;;;;18.30;48.92;95841.38;5011305;28;20051;-71
2022/10/16 10:45:54;;;;;;;;;;;;;;;18.71;47.10;95845.00;5012312;28;19933;-71
2022/10/16 10:48:36;;;;;;;;;;;;;;;18.49;47.25;95842.53;5011479;28;20027;-70
2022/10/16 10:51:22;;;;;;;;;;;;;;;18.82;49.02;95848.50;5011988;28;19953;-69
2022/10/16 10:54:22;;;;;;;;;;;;;;;19.03;46.21;95838.81;5012908;28;19936;-68
2022/10/16 10:57:04;;;;;;;;;;;;;;;18.32;47.39;95839.25;4972210;28;20682;-66
2022/10/16 10:59:46;;;;;;;;;;;;;;;18.52;48.32;95844.63;5007795;28;19929;-67
2022/10/16 11:02:21;;;;;;;;;;;;;;;19.19;46.38;95837.00;5012766;28;19960;-67
2022/10/16 11:05:03;;;;;;;;;;;;;;;19.38;45.61;95834.66;5009494;28;19987;-66
2022/10/16 11:07:39;;;;;;;;;;;;;;;19.80;45.20;95822.31;5014301;28;19930;-68
2022/10/16 11:10:14;;;;;;;;;;;;;;;20.51;43.36;95828.53;5007980;28;19933;-68
2022/10/16 11:12:52;;;;;;;;;;;;;;;20.51;41.82;95825.88;4994247;28;19928;-68
2022/10/16 11:15:25;;;;;;;;;;;;;;;20.32;42.12;95821.16;5007131;28;20079;-66
2022/10/16 11:18:07;;;;;;;;;;;;;;;20.61;43.77;95813.44;5010241;28;20318;-67
2022/10/16 11:20:40;;;;;;;;;;;;;;;21.53;39.96;95822.00;5009812;28;19933;-75
2022/10/16 11:23:28;;;;;;;;;;;;;;;22.22;39.20;95827.25;5011896;28;20018;-77
2022/10/16 11:25:57;;;;;;;;;;;;;;;22.41;37.17;95814.09;4998045;28;20731;-75
2022/10/16 11:28:27;;;;;;;;;;;;;;;22.68;36.97;95811.63;5017848;28;20024;-77
2022/10/16 11:31:00;;;;;;;;;;;;;;;23.18;36.27;95808.66;5008069;28;20655;-66
2022/10/16 11:33:31;;;;;;;;;;;;;;;23.35;35.34;95818.75;5012713;28;20011;-65
2022/10/16 11:35:58;;;;;;;;;;;;;;;22.90;35.61;95815.63;5008811;28;19926;-67
2022/10/16 11:38:38;;;;;;;;;;;;;;;23.21;33.69;95815.25;5011055;28;19957;-67
2022/10/16 11:41:11;;;;;;;;;;;;;;;23.50;34.56;95814.31;5006440;28;20020;-67
2022/10/16 11:43:41;;;;;;;;;;;;;;;23.75;34.58;95808.59;5011074;28;19964;-67
2022/10/16 11:46:28;;;;;;;;;;;;;;;23.80;33.94;95821.81;5012039;28;20552;-66
2022/10/16 11:49:03;;;;;;;;;;;;;;;23.46;31.91;95806.94;5008981;28;19929;-67
2022/10/16 11:51:53;;;;;;;;;;;;;;;23.85;33.01;95808.44;5015332;28;19930;-65
2022/10/16 11:54:38;;;;;;;;;;;;;;;24.30;33.01;95817.81;4971411;28;20430;-67
2022/10/16 11:57:17;;;;;;;;;;;;;;;23.41;32.90;95817.63;5012977;28;19933;-67
2022/10/16 11:59:50;;;;;;;;;;;;;;;22.95;33.05;95812.13;5019346;28;20374;-67
2022/10/16 12:02:31;;;;;;;;;;;;;;;23.00;37.18;95810.19;5018233;28;20042;-66
2022/10/16 12:05:06;;;;;;;;;;;;;;;23.71;32.82;95818.22;5013270;28;19933;-69
2022/10/16 12:07:36;;;;;;;;;;;;;;;24.17;32.58;95819.38;5011703;28;19976;-69
2022/10/16 12:10:10;;;;;;;;;;;;;;;23.74;31.59;95820.31;5008616;28;20035;-69
2022/10/16 12:12:38;;;;;;;;;;;;;;;24.49;31.65;95821.19;5006757;28;19926;-69
2022/10/16 12:15:05;;;;;;;;;;;;;;;24.87;30.69;95826.31;5008690;28;19935;-69
2022/10/16 12:17:45;;;;;;;;;;;;;;;24.54;29.65;95817.66;5011764;28;20304;-69
2022/10/16 12:20:11;;;;;;;;;;;;;;;25.13;29.05;95823.13;5011386;28;19971;-69
2022/10/16 12:22:47;;;;;;;;;;;;;;;25.01;28.38;95823.63;5014171;28;19929;-70
2022/10/16 12:25:46;;;;;;;;;;;;;;;24.93;28.44;95819.00;5007302;28;19964;-70
2022/10/16 12:28:16;;;;;;;;;;;;;;;24.80;30.11;95815.28;5011338;28;19948;-67
2022/10/16 12:30:51;;;;;;;;;;;;;;;24.54;28.83;95818.47;5012609;28;19940;-67
2022/10/16 12:33:25;;;;;;;;;;;;;;;24.73;30.13;95826.31;5012029;28;19983;-69
2022/10/16 12:35:53;;;;;;;;;;;;;;;24.85;30.08;95823.16;5011815;28;19925;-67
2022/10/16 12:38:24;;;;;;;;;;;;;;;25.48;29.06;95824.25;5015468;28;19926;-70
2022/10/16 12:41:03;;;;;;;;;;;;;;;26.12;29.58;95826.72;5009128;28;20163;-69
2022/10/16 12:43:36;;;;;;;;;;;;;;;26.31;28.44;95829.19;5008785;28;20197;-74
2022/10/16 12:46:23;;;;;;;;;;;;;;;26.57;27.89;95835.72;4992233;28;20406;-67
2022/10/16 12:48:50;;;;;;;;;;;;;;;26.28;27.13;95839.69;4996941;28;20023;-68
2022/10/16 12:51:35;;;;;;;;;;;;;;;26.78;26.34;95842.13;5005671;28;19929;-68
2022/10/16 12:54:20;;;;;;;;;;;;;;;26.31;25.69;95797.13;4995535;28;19940;-67
2022/10/16 12:56:58;;;;;;;;;;;;;;;26.32;25.02;95843.31;5006959;28;20686;-66
2022/10/16 12:59:45;;;;;;;;;;;;;;;25.64;24.40;95838.03;5010563;28;19933;-66